LIPH Airport Information

Runway Information
Runway 07 Length 7941 ft width 144 ft
Elevation 56 ft Threshold 254 ft Heading 69
Runway 25 Length 7941 ft Width 144 ft
Elevation 51 ft Threshold 389 ft Heading 249
Airport Frequencies
Type APP Name APP Frequency 36.23 MHZ
Type APP Name APP Frequency 120.4 MHZ
Type GND Name GND Frequency 27.917 MHZ
Type INFO Name PADOVA INF Frequency 124.15 MHZ
Type TWR Name TWR Frequency 118.7 MHZ
Airport Navaids
Type NDB Name Treviso Frequency 302 KHZ
Airport Weather Information & NOTAM
ADDS - METARS form results

(0215 UTC 22 May 2022)
Data provider http://aviationweather.gov/metar/data/
 
METAR text: LIPH 220150Z AUTO 03002KT 9999 NCD 19/15 Q1013
Conditions at: LIPH (TREVISO(CIV/IT-A, IT) observed 0150 UTC 22 May 2022
Temperature: 19.0°C (66°F)
Dewpoint: 15.0°C (59°F) [RH = 78%]
Pressure (altimeter): 29.91 inches Hg (1013.0 mb)
Winds: from the NNE (30 degrees) at 2 MPH (2 knots; 1.0 m/s)
Visibility: 6 or more miles (10+ km)
Ceiling: at least 12,000 feet AGL
Clouds: sky clear below 12,000 feet AGL
Weather: no significant weather observed at this time

METAR text: LIPH 220120Z AUTO 03003KT 340V060 9999 NCD 19/16 Q1014
Conditions at: LIPH (TREVISO(CIV/IT-A, IT) observed 0120 UTC 22 May 2022
Temperature: 19.0°C (66°F)
Dewpoint: 16.0°C (61°F) [RH = 83%]
Pressure (altimeter): 29.94 inches Hg (1014.0 mb)
Winds: from the NNE (30 degrees) at 3 MPH (3 knots; 1.5 m/s)
Visibility: 6 or more miles (10+ km)
Ceiling: at least 12,000 feet AGL
Clouds: sky clear below 12,000 feet AGL
Weather: no significant weather observed at this time

Forecast for: LIPH (TREVISO(CIV/IT-A, IT)
Text: TAF LIPH 212300Z 2200/2224 VRB05KT CAVOK
Forecast period: 0000 to 1400 UTC 22 May 2022
Forecast type: FROM: standard forecast or significant change
Winds: variable direction winds at 6 MPH (5 knots; 2.6 m/s)
Visibility: 6 or more miles (10+ km)
Ceiling: unknown
Clouds: missing
Weather: NSW  (no significant weather)
Text: BECMG 2214/2216 15010KT
Forecast period: 1400 UTC 22 May 2022 to 0000 UTC 23 May 2022
Forecast type: BECOMING: Conditions expected to become as follows by 1600 UTC 22 May 2022
Winds: from the SSE (150 degrees) at 12 MPH (10 knots; 5.1 m/s)
Visibility: 6 or more miles (10+ km)
Ceiling: unknown
Clouds: missing
Weather: NSW  (no significant weather)